sensor_id;sensor_type;location;lat;lon;timestamp;P1;durP1;ratioP1;P2;durP2;ratioP2
10120;SDS011;5100;45.176;5.714;2022-11-14T00:02:35;17.40;;;15.80;;
10120;SDS011;5100;45.176;5.714;2022-11-14T00:05:20;16.83;;;15.30;;
10120;SDS011;5100;45.176;5.714;2022-11-14T00:08:05;16.37;;;14.77;;
10120;SDS011;5100;45.176;5.714;2022-11-14T00:10:50;15.97;;;14.37;;
10120;SDS011;5100;45.176;5.714;2022-11-14T00:13:35;16.97;;;15.17;;
10120;SDS011;5100;45.176;5.714;2022-11-14T00:16:20;17.33;;;15.53;;
10120;SDS011;5100;45.176;5.714;2022-11-14T00:19:04;17.30;;;15.63;;
10120;SDS011;5100;45.176;5.714;2022-11-14T00:21:49;14.70;;;13.30;;
10120;SDS011;5100;45.176;5.714;2022-11-14T00:24:37;16.27;;;14.77;;
10120;SDS011;5100;45.176;5.714;2022-11-14T00:27:21;15.40;;;13.90;;
10120;SDS011;5100;45.176;5.714;2022-11-14T00:30:06;15.10;;;13.60;;
10120;SDS011;5100;45.176;5.714;2022-11-14T00:32:51;15.90;;;14.30;;
10120;SDS011;5100;45.176;5.714;2022-11-14T00:35:36;15.13;;;13.70;;
10120;SDS011;5100;45.176;5.714;2022-11-14T00:38:20;13.53;;;12.20;;
10120;SDS011;5100;45.176;5.714;2022-11-14T00:41:05;14.17;;;12.77;;
10120;SDS011;5100;45.176;5.714;2022-11-14T00:43:50;13.20;;;11.83;;
10120;SDS011;5100;45.176;5.714;2022-11-14T00:46:35;13.67;;;12.37;;
10120;SDS011;5100;45.176;5.714;2022-11-14T00:49:19;13.20;;;12.00;;
10120;SDS011;5100;45.176;5.714;2022-11-14T00:52:04;14.20;;;12.90;;
10120;SDS011;5100;45.176;5.714;2022-11-14T00:54:48;14.50;;;13.00;;
10120;SDS011;5100;45.176;5.714;2022-11-14T00:57:33;13.67;;;12.00;;
10120;SDS011;5100;45.176;5.714;2022-11-14T01:00:17;13.37;;;12.07;;
10120;SDS011;5100;45.176;5.714;2022-11-14T01:03:02;12.93;;;11.73;;
10120;SDS011;5100;45.176;5.714;2022-11-14T01:05:47;13.47;;;12.17;;
10120;SDS011;5100;45.176;5.714;2022-11-14T01:08:33;13.60;;;12.30;;
10120;SDS011;5100;45.176;5.714;2022-11-14T01:11:19;13.70;;;12.23;;
10120;SDS011;5100;45.176;5.714;2022-11-14T01:14:05;12.67;;;11.53;;
10120;SDS011;5100;45.176;5.714;2022-11-14T01:16:50;13.50;;;12.30;;
10120;SDS011;5100;45.176;5.714;2022-11-14T01:19:35;12.83;;;11.53;;
10120;SDS011;5100;45.176;5.714;2022-11-14T01:22:19;13.47;;;12.23;;
10120;SDS011;5100;45.176;5.714;2022-11-14T01:25:04;12.63;;;11.43;;
10120;SDS011;5100;45.176;5.714;2022-11-14T01:27:49;12.33;;;11.23;;
10120;SDS011;5100;45.176;5.714;2022-11-14T01:30:34;12.77;;;11.57;;
10120;SDS011;5100;45.176;5.714;2022-11-14T01:33:18;13.23;;;11.73;;
10120;SDS011;5100;45.176;5.714;2022-11-14T01:36:02;12.37;;;11.13;;
10120;SDS011;5100;45.176;5.714;2022-11-14T01:38:51;12.67;;;11.50;;
10120;SDS011;5100;45.176;5.714;2022-11-14T01:41:37;12.40;;;11.23;;
10120;SDS011;5100;45.176;5.714;2022-11-14T01:44:43;12.27;;;11.13;;
10120;SDS011;5100;45.176;5.714;2022-11-14T01:47:33;12.73;;;11.43;;
10120;SDS011;5100;45.176;5.714;2022-11-14T01:50:18;12.20;;;10.77;;
10120;SDS011;5100;45.176;5.714;2022-11-14T01:53:02;12.30;;;11.10;;
10120;SDS011;5100;45.176;5.714;2022-11-14T01:55:47;11.30;;;10.23;;
10120;SDS011;5100;45.176;5.714;2022-11-14T01:58:32;12.77;;;11.47;;
10120;SDS011;5100;45.176;5.714;2022-11-14T02:01:18;11.97;;;10.87;;
10120;SDS011;5100;45.176;5.714;2022-11-14T02:04:03;11.83;;;10.73;;
10120;SDS011;5100;45.176;5.714;2022-11-14T02:06:50;11.43;;;10.37;;
10120;SDS011;5100;45.176;5.714;2022-11-14T02:09:39;12.20;;;10.93;;
10120;SDS011;5100;45.176;5.714;2022-11-14T02:12:26;12.43;;;11.33;;
10120;SDS011;5100;45.176;5.714;2022-11-14T02:15:11;11.53;;;10.40;;
10120;SDS011;5100;45.176;5.714;2022-11-14T02:17:57;11.90;;;10.80;;
10120;SDS011;5100;45.176;5.714;2022-11-14T02:20:42;10.70;;;9.70;;
10120;SDS011;5100;45.176;5.714;2022-11-14T02:23:27;12.23;;;11.03;;
10120;SDS011;5100;45.176;5.714;2022-11-14T02:26:15;10.73;;;9.73;;
10120;SDS011;5100;45.176;5.714;2022-11-14T02:29:02;11.30;;;10.30;;
10120;SDS011;5100;45.176;5.714;2022-11-14T02:31:47;11.60;;;10.43;;
10120;SDS011;5100;45.176;5.714;2022-11-14T02:34:31;10.93;;;9.93;;
10120;SDS011;5100;45.176;5.714;2022-11-14T02:37:15;11.63;;;10.53;;
10120;SDS011;5100;45.176;5.714;2022-11-14T02:40:00;11.90;;;10.70;;
10120;SDS011;5100;45.176;5.714;2022-11-14T02:42:45;11.10;;;10.07;;
10120;SDS011;5100;45.176;5.714;2022-11-14T02:45:29;11.43;;;10.43;;
10120;SDS011;5100;45.176;5.714;2022-11-14T02:48:14;11.33;;;10.20;;
10120;SDS011;5100;45.176;5.714;2022-11-14T02:50:58;13.17;;;11.60;;
10120;SDS011;5100;45.176;5.714;2022-11-14T02:53:43;11.37;;;10.23;;
10120;SDS011;5100;45.176;5.714;2022-11-14T02:56:27;11.80;;;10.70;;
10120;SDS011;5100;45.176;5.714;2022-11-14T02:59:12;11.70;;;10.60;;
10120;SDS011;5100;45.176;5.714;2022-11-14T03:01:57;11.37;;;10.27;;
10120;SDS011;5100;45.176;5.714;2022-11-14T03:04:41;11.60;;;10.50;;
10120;SDS011;5100;45.176;5.714;2022-11-14T03:07:26;11.20;;;10.10;;
10120;SDS011;5100;45.176;5.714;2022-11-14T03:10:10;11.43;;;10.33;;
10120;SDS011;5100;45.176;5.714;2022-11-14T03:12:56;11.37;;;10.27;;
10120;SDS011;5100;45.176;5.714;2022-11-14T03:15:41;11.77;;;10.67;;
10120;SDS011;5100;45.176;5.714;2022-11-14T03:18:26;12.07;;;10.77;;
10120;SDS011;5100;45.176;5.714;2022-11-14T03:21:11;11.83;;;10.63;;
10120;SDS011;5100;45.176;5.714;2022-11-14T03:24:00;11.87;;;10.73;;
10120;SDS011;5100;45.176;5.714;2022-11-14T03:26:45;11.77;;;10.60;;
10120;SDS011;5100;45.176;5.714;2022-11-14T03:29:29;11.77;;;10.57;;
10120;SDS011;5100;45.176;5.714;2022-11-14T03:32:14;11.27;;;10.23;;
10120;SDS011;5100;45.176;5.714;2022-11-14T03:34:59;12.13;;;10.87;;
10120;SDS011;5100;45.176;5.714;2022-11-14T03:37:43;11.83;;;10.63;;
10120;SDS011;5100;45.176;5.714;2022-11-14T03:40:28;12.30;;;11.07;;
10120;SDS011;5100;45.176;5.714;2022-11-14T03:43:13;13.63;;;11.33;;
10120;SDS011;5100;45.176;5.714;2022-11-14T03:45:58;12.27;;;10.53;;
10120;SDS011;5100;45.176;5.714;2022-11-14T03:48:43;11.37;;;10.27;;
10120;SDS011;5100;45.176;5.714;2022-11-14T03:51:28;11.87;;;10.00;;
10120;SDS011;5100;45.176;5.714;2022-11-14T03:54:12;11.20;;;10.03;;
10120;SDS011;5100;45.176;5.714;2022-11-14T03:56:57;11.40;;;10.40;;
10120;SDS011;5100;45.176;5.714;2022-11-14T03:59:41;12.33;;;11.13;;
10120;SDS011;5100;45.176;5.714;2022-11-14T04:02:26;11.87;;;10.67;;
10120;SDS011;5100;45.176;5.714;2022-11-14T04:05:11;11.37;;;10.30;;
10120;SDS011;5100;45.176;5.714;2022-11-14T04:07:55;11.47;;;10.30;;
10120;SDS011;5100;45.176;5.714;2022-11-14T04:10:40;11.63;;;10.47;;
10120;SDS011;5100;45.176;5.714;2022-11-14T04:13:25;11.43;;;10.27;;
10120;SDS011;5100;45.176;5.714;2022-11-14T04:16:09;11.17;;;10.07;;
10120;SDS011;5100;45.176;5.714;2022-11-14T04:18:53;11.97;;;10.77;;
10120;SDS011;5100;45.176;5.714;2022-11-14T04:21:38;11.53;;;10.40;;
10120;SDS011;5100;45.176;5.714;2022-11-14T04:24:23;11.43;;;10.33;;
10120;SDS011;5100;45.176;5.714;2022-11-14T04:27:07;12.43;;;11.23;;
10120;SDS011;5100;45.176;5.714;2022-11-14T04:29:52;11.47;;;10.37;;
10120;SDS011;5100;45.176;5.714;2022-11-14T04:32:36;11.73;;;10.23;;
10120;SDS011;5100;45.176;5.714;2022-11-14T04:35:21;10.50;;;9.33;;
10120;SDS011;5100;45.176;5.714;2022-11-14T04:38:05;10.63;;;9.53;;
10120;SDS011;5100;45.176;5.714;2022-11-14T04:40:50;10.93;;;9.93;;
10120;SDS011;5100;45.176;5.714;2022-11-14T04:43:35;11.67;;;10.00;;
10120;SDS011;5100;45.176;5.714;2022-11-14T04:46:20;11.47;;;10.17;;
10120;SDS011;5100;45.176;5.714;2022-11-14T04:49:05;11.13;;;10.03;;
10120;SDS011;5100;45.176;5.714;2022-11-14T04:51:49;11.33;;;10.13;;
10120;SDS011;5100;45.176;5.714;2022-11-14T04:54:34;11.70;;;9.67;;
10120;SDS011;5100;45.176;5.714;2022-11-14T04:57:19;10.97;;;9.93;;
10120;SDS011;5100;45.176;5.714;2022-11-14T05:00:03;10.80;;;9.73;;
10120;SDS011;5100;45.176;5.714;2022-11-14T05:02:49;10.77;;;9.67;;
10120;SDS011;5100;45.176;5.714;2022-11-14T05:05:34;10.97;;;9.80;;
10120;SDS011;5100;45.176;5.714;2022-11-14T05:08:18;10.90;;;9.97;;
10120;SDS011;5100;45.176;5.714;2022-11-14T05:11:03;12.30;;;11.13;;
10120;SDS011;5100;45.176;5.714;2022-11-14T05:13:47;13.10;;;11.80;;
10120;SDS011;5100;45.176;5.714;2022-11-14T05:19:25;11.97;;;10.77;;
10120;SDS011;5100;45.176;5.714;2022-11-14T05:22:10;12.33;;;11.07;;
10120;SDS011;5100;45.176;5.714;2022-11-14T05:24:54;12.60;;;10.50;;
10120;SDS011;5100;45.176;5.714;2022-11-14T05:27:39;12.87;;;10.13;;
10120;SDS011;5100;45.176;5.714;2022-11-14T05:30:24;11.67;;;10.47;;
10120;SDS011;5100;45.176;5.714;2022-11-14T05:33:08;11.53;;;10.40;;
10120;SDS011;5100;45.176;5.714;2022-11-14T05:35:53;11.03;;;9.90;;
10120;SDS011;5100;45.176;5.714;2022-11-14T05:38:37;10.33;;;9.43;;
10120;SDS011;5100;45.176;5.714;2022-11-14T05:41:22;11.30;;;10.20;;
10120;SDS011;5100;45.176;5.714;2022-11-14T05:44:07;12.93;;;9.80;;
10120;SDS011;5100;45.176;5.714;2022-11-14T05:46:51;11.67;;;10.57;;
10120;SDS011;5100;45.176;5.714;2022-11-14T05:49:36;11.13;;;10.00;;
10120;SDS011;5100;45.176;5.714;2022-11-14T05:52:20;11.27;;;9.30;;
10120;SDS011;5100;45.176;5.714;2022-11-14T05:55:05;10.00;;;9.03;;
10120;SDS011;5100;45.176;5.714;2022-11-14T05:57:50;10.20;;;9.20;;
10120;SDS011;5100;45.176;5.714;2022-11-14T06:00:34;10.60;;;9.50;;
10120;SDS011;5100;45.176;5.714;2022-11-14T06:03:19;9.87;;;8.87;;
10120;SDS011;5100;45.176;5.714;2022-11-14T06:06:04;10.57;;;9.00;;
10120;SDS011;5100;45.176;5.714;2022-11-14T06:08:50;9.13;;;8.37;;
10120;SDS011;5100;45.176;5.714;2022-11-14T06:11:35;9.40;;;8.43;;
10120;SDS011;5100;45.176;5.714;2022-11-14T06:14:20;9.47;;;8.57;;
10120;SDS011;5100;45.176;5.714;2022-11-14T06:17:04;9.63;;;8.67;;
10120;SDS011;5100;45.176;5.714;2022-11-14T06:19:49;10.50;;;9.50;;
10120;SDS011;5100;45.176;5.714;2022-11-14T06:22:33;10.50;;;8.27;;
10120;SDS011;5100;45.176;5.714;2022-11-14T06:25:18;9.40;;;8.50;;
10120;SDS011;5100;45.176;5.714;2022-11-14T06:28:03;9.13;;;8.17;;
10120;SDS011;5100;45.176;5.714;2022-11-14T06:30:47;9.17;;;8.13;;
10120;SDS011;5100;45.176;5.714;2022-11-14T06:33:32;9.77;;;8.87;;
10120;SDS011;5100;45.176;5.714;2022-11-14T06:36:18;9.80;;;8.83;;
10120;SDS011;5100;45.176;5.714;2022-11-14T06:39:03;9.60;;;8.60;;
10120;SDS011;5100;45.176;5.714;2022-11-14T06:41:48;10.50;;;9.50;;
10120;SDS011;5100;45.176;5.714;2022-11-14T06:44:32;9.70;;;8.80;;
10120;SDS011;5100;45.176;5.714;2022-11-14T06:47:16;10.07;;;9.17;;
10120;SDS011;5100;45.176;5.714;2022-11-14T06:50:01;10.73;;;8.63;;
10120;SDS011;5100;45.176;5.714;2022-11-14T06:52:45;10.87;;;8.70;;
10120;SDS011;5100;45.176;5.714;2022-11-14T06:55:30;9.97;;;8.97;;
10120;SDS011;5100;45.176;5.714;2022-11-14T06:58:14;14.33;;;11.70;;
10120;SDS011;5100;45.176;5.714;2022-11-14T07:01:02;11.20;;;9.53;;
10120;SDS011;5100;45.176;5.714;2022-11-14T07:03:57;10.87;;;8.80;;
10120;SDS011;5100;45.176;5.714;2022-11-14T07:06:43;9.93;;;8.43;;
10120;SDS011;5100;45.176;5.714;2022-11-14T07:09:27;9.13;;;8.23;;
10120;SDS011;5100;45.176;5.714;2022-11-14T07:12:12;11.17;;;9.37;;
10120;SDS011;5100;45.176;5.714;2022-11-14T07:14:56;12.07;;;10.70;;
10120;SDS011;5100;45.176;5.714;2022-11-14T07:17:41;15.10;;;12.20;;
10120;SDS011;5100;45.176;5.714;2022-11-14T07:20:26;10.50;;;9.50;;
10120;SDS011;5100;45.176;5.714;2022-11-14T07:23:10;11.77;;;10.57;;
10120;SDS011;5100;45.176;5.714;2022-11-14T07:25:55;12.03;;;9.77;;
10120;SDS011;5100;45.176;5.714;2022-11-14T07:28:49;12.03;;;9.67;;
10120;SDS011;5100;45.176;5.714;2022-11-14T07:31:34;10.57;;;9.47;;
10120;SDS011;5100;45.176;5.714;2022-11-14T07:34:18;12.20;;;9.70;;
10120;SDS011;5100;45.176;5.714;2022-11-14T07:37:03;11.97;;;9.53;;
10120;SDS011;5100;45.176;5.714;2022-11-14T07:39:47;13.77;;;10.30;;
10120;SDS011;5100;45.176;5.714;2022-11-14T07:42:32;13.90;;;9.50;;
10120;SDS011;5100;45.176;5.714;2022-11-14T07:45:16;13.40;;;8.77;;
10120;SDS011;5100;45.176;5.714;2022-11-14T07:48:02;9.93;;;8.80;;
10120;SDS011;5100;45.176;5.714;2022-11-14T07:50:47;13.17;;;8.40;;
10120;SDS011;5100;45.176;5.714;2022-11-14T07:53:32;11.00;;;8.30;;
10120;SDS011;5100;45.176;5.714;2022-11-14T07:56:17;10.63;;;8.90;;
10120;SDS011;5100;45.176;5.714;2022-11-14T07:59:03;11.73;;;8.90;;
10120;SDS011;5100;45.176;5.714;2022-11-14T08:01:47;9.87;;;8.50;;
10120;SDS011;5100;45.176;5.714;2022-11-14T08:04:32;13.00;;;8.57;;
10120;SDS011;5100;45.176;5.714;2022-11-14T08:07:16;9.27;;;8.20;;
10120;SDS011;5100;45.176;5.714;2022-11-14T08:10:01;10.00;;;8.40;;
10120;SDS011;5100;45.176;5.714;2022-11-14T08:12:46;10.60;;;8.60;;
10120;SDS011;5100;45.176;5.714;2022-11-14T08:15:30;12.37;;;8.27;;
10120;SDS011;5100;45.176;5.714;2022-11-14T08:18:15;8.47;;;7.20;;
10120;SDS011;5100;45.176;5.714;2022-11-14T08:21:02;8.50;;;7.60;;
10120;SDS011;5100;45.176;5.714;2022-11-14T08:23:47;7.73;;;7.03;;
10120;SDS011;5100;45.176;5.714;2022-11-14T08:26:31;12.23;;;7.07;;
10120;SDS011;5100;45.176;5.714;2022-11-14T08:29:16;9.30;;;7.20;;
10120;SDS011;5100;45.176;5.714;2022-11-14T08:32:00;9.27;;;7.37;;
10120;SDS011;5100;45.176;5.714;2022-11-14T08:34:45;9.30;;;7.40;;
10120;SDS011;5100;45.176;5.714;2022-11-14T08:37:29;12.27;;;8.20;;
10120;SDS011;5100;45.176;5.714;2022-11-14T08:40:14;14.87;;;8.50;;
10120;SDS011;5100;45.176;5.714;2022-11-14T08:42:59;16.17;;;8.83;;
10120;SDS011;5100;45.176;5.714;2022-11-14T08:45:44;14.77;;;8.90;;
10120;SDS011;5100;45.176;5.714;2022-11-14T08:48:29;11.50;;;7.63;;
10120;SDS011;5100;45.176;5.714;2022-11-14T08:51:14;13.53;;;8.30;;
10120;SDS011;5100;45.176;5.714;2022-11-14T08:53:59;13.73;;;8.37;;
10120;SDS011;5100;45.176;5.714;2022-11-14T08:56:43;12.43;;;8.33;;
10120;SDS011;5100;45.176;5.714;2022-11-14T08:59:28;11.67;;;8.87;;
10120;SDS011;5100;45.176;5.714;2022-11-14T09:02:12;13.20;;;8.80;;
10120;SDS011;5100;45.176;5.714;2022-11-14T09:04:56;11.37;;;9.73;;
10120;SDS011;5100;45.176;5.714;2022-11-14T09:07:41;13.80;;;8.20;;
10120;SDS011;5100;45.176;5.714;2022-11-14T09:10:26;13.10;;;8.50;;
10120;SDS011;5100;45.176;5.714;2022-11-14T09:13:10;10.20;;;9.00;;
10120;SDS011;5100;45.176;5.714;2022-11-14T09:15:55;13.07;;;8.33;;
10120;SDS011;5100;45.176;5.714;2022-11-14T09:18:39;13.77;;;8.03;;
10120;SDS011;5100;45.176;5.714;2022-11-14T09:21:24;16.43;;;7.50;;
10120;SDS011;5100;45.176;5.714;2022-11-14T09:24:09;8.97;;;8.00;;
10120;SDS011;5100;45.176;5.714;2022-11-14T09:26:53;11.80;;;8.17;;
10120;SDS011;5100;45.176;5.714;2022-11-14T09:29:37;14.67;;;7.97;;
10120;SDS011;5100;45.176;5.714;2022-11-14T09:32:22;12.23;;;8.10;;
10120;SDS011;5100;45.176;5.714;2022-11-14T09:35:06;12.43;;;8.37;;
10120;SDS011;5100;45.176;5.714;2022-11-14T09:37:57;16.20;;;8.20;;
10120;SDS011;5100;45.176;5.714;2022-11-14T09:40:47;15.00;;;8.43;;
10120;SDS011;5100;45.176;5.714;2022-11-14T09:43:39;10.63;;;7.70;;
10120;SDS011;5100;45.176;5.714;2022-11-14T09:46:42;11.20;;;7.75;;
10120;SDS011;5100;45.176;5.714;2022-11-14T09:49:38;12.33;;;7.93;;
10120;SDS011;5100;45.176;5.714;2022-11-14T09:55:37;11.23;;;7.07;;
10120;SDS011;5100;45.176;5.714;2022-11-14T09:58:21;11.00;;;8.13;;
10120;SDS011;5100;45.176;5.714;2022-11-14T10:04:15;13.30;;;7.82;;
10120;SDS011;5100;45.176;5.714;2022-11-14T10:07:40;13.40;;;8.30;;
10120;SDS011;5100;45.176;5.714;2022-11-14T10:10:45;12.23;;;7.95;;
10120;SDS011;5100;45.176;5.714;2022-11-14T10:32:06;10.85;;;7.45;;
10120;SDS011;5100;45.176;5.714;2022-11-14T10:35:18;8.88;;;7.97;;
10120;SDS011;5100;45.176;5.714;2022-11-14T10:38:25;16.37;;;8.30;;
10120;SDS011;5100;45.176;5.714;2022-11-14T10:41:17;13.05;;;8.40;;
10120;SDS011;5100;45.176;5.714;2022-11-14T10:44:02;13.20;;;8.57;;
10120;SDS011;5100;45.176;5.714;2022-11-14T10:46:55;11.10;;;8.23;;
10120;SDS011;5100;45.176;5.714;2022-11-14T10:49:45;11.23;;;7.68;;
10120;SDS011;5100;45.176;5.714;2022-11-14T10:52:37;11.30;;;7.43;;
10120;SDS011;5100;45.176;5.714;2022-11-14T10:55:24;10.20;;;7.12;;
10120;SDS011;5100;45.176;5.714;2022-11-14T10:58:08;8.07;;;6.82;;
10120;SDS011;5100;45.176;5.714;2022-11-14T11:00:55;8.27;;;7.03;;
10120;SDS011;5100;45.176;5.714;2022-11-14T11:03:42;10.98;;;7.10;;
10120;SDS011;5100;45.176;5.714;2022-11-14T11:06:28;12.05;;;6.93;;
10120;SDS011;5100;45.176;5.714;2022-11-14T11:09:14;11.68;;;7.03;;
10120;SDS011;5100;45.176;5.714;2022-11-14T11:12:20;11.73;;;6.30;;
10120;SDS011;5100;45.176;5.714;2022-11-14T11:17:57;7.93;;;6.57;;
10120;SDS011;5100;45.176;5.714;2022-11-14T11:20:44;9.68;;;6.50;;
10120;SDS011;5100;45.176;5.714;2022-11-14T11:24:04;8.15;;;6.60;;
10120;SDS011;5100;45.176;5.714;2022-11-14T11:26:49;8.80;;;6.53;;
10120;SDS011;5100;45.176;5.714;2022-11-14T11:30:01;10.68;;;6.78;;
10120;SDS011;5100;45.176;5.714;2022-11-14T11:32:46;9.18;;;7.00;;
10120;SDS011;5100;45.176;5.714;2022-11-14T11:35:31;6.62;;;5.97;;
10120;SDS011;5100;45.176;5.714;2022-11-14T11:38:15;10.18;;;6.70;;
10120;SDS011;5100;45.176;5.714;2022-11-14T11:44:09;9.75;;;6.18;;
10120;SDS011;5100;45.176;5.714;2022-11-14T11:46:59;9.48;;;6.15;;
10120;SDS011;5100;45.176;5.714;2022-11-14T11:49:49;7.12;;;5.57;;
10120;SDS011;5100;45.176;5.714;2022-11-14T11:52:36;11.43;;;10.20;;
10120;SDS011;5100;45.176;5.714;2022-11-14T11:55:32;7.57;;;5.47;;
10120;SDS011;5100;45.176;5.714;2022-11-14T12:01:09;7.90;;;6.03;;
10120;SDS011;5100;45.176;5.714;2022-11-14T12:03:55;6.03;;;5.10;;
10120;SDS011;5100;45.176;5.714;2022-11-14T12:09:58;5.53;;;3.65;;
10120;SDS011;5100;45.176;5.714;2022-11-14T12:12:54;3.05;;;2.67;;
10120;SDS011;5100;45.176;5.714;2022-11-14T12:30:26;1.55;;;1.45;;
10120;SDS011;5100;45.176;5.714;2022-11-14T12:33:15;1.98;;;1.50;;
10120;SDS011;5100;45.176;5.714;2022-11-14T12:36:11;2.55;;;2.12;;
10120;SDS011;5100;45.176;5.714;2022-11-14T12:38:56;2.87;;;1.60;;
10120;SDS011;5100;45.176;5.714;2022-11-14T12:41:42;1.62;;;1.52;;
10120;SDS011;5100;45.176;5.714;2022-11-14T12:47:12;1.73;;;1.50;;
10120;SDS011;5100;45.176;5.714;2022-11-14T12:50:00;2.20;;;1.50;;
10120;SDS011;5100;45.176;5.714;2022-11-14T12:52:46;2.33;;;1.50;;
10120;SDS011;5100;45.176;5.714;2022-11-14T12:58:26;5.15;;;1.70;;
10120;SDS011;5100;45.176;5.714;2022-11-14T13:10:37;1.70;;;1.60;;
10120;SDS011;5100;45.176;5.714;2022-11-14T13:13:23;2.87;;;1.83;;
10120;SDS011;5100;45.176;5.714;2022-11-14T13:16:30;1.62;;;1.52;;
10120;SDS011;5100;45.176;5.714;2022-11-14T13:19:34;2.62;;;1.70;;
10120;SDS011;5100;45.176;5.714;2022-11-14T13:22:48;1.80;;;1.25;;
10120;SDS011;5100;45.176;5.714;2022-11-14T13:25:32;1.45;;;1.35;;
10120;SDS011;5100;45.176;5.714;2022-11-14T13:52:56;4.35;;;1.50;;
10120;SDS011;5100;45.176;5.714;2022-11-14T13:55:48;1.50;;;1.40;;
10120;SDS011;5100;45.176;5.714;2022-11-14T13:58:53;3.60;;;1.52;;
10120;SDS011;5100;45.176;5.714;2022-11-14T14:23:23;1.55;;;1.45;;
10120;SDS011;5100;45.176;5.714;2022-11-14T14:32:23;3.05;;;1.58;;
10120;SDS011;5100;45.176;5.714;2022-11-14T14:35:21;2.03;;;1.60;;
10120;SDS011;5100;45.176;5.714;2022-11-14T14:38:12;1.50;;;1.40;;
10120;SDS011;5100;45.176;5.714;2022-11-14T14:41:04;3.10;;;1.50;;
10120;SDS011;5100;45.176;5.714;2022-11-14T14:43:51;2.33;;;1.60;;
10120;SDS011;5100;45.176;5.714;2022-11-14T14:46:37;2.15;;;1.70;;
10120;SDS011;5100;45.176;5.714;2022-11-14T14:49:26;1.52;;;1.42;;
10120;SDS011;5100;45.176;5.714;2022-11-14T14:52:34;1.52;;;1.33;;
10120;SDS011;5100;45.176;5.714;2022-11-14T14:55:21;2.62;;;1.62;;
10120;SDS011;5100;45.176;5.714;2022-11-14T14:58:24;1.52;;;1.30;;
10120;SDS011;5100;45.176;5.714;2022-11-14T15:01:13;1.50;;;1.40;;
10120;SDS011;5100;45.176;5.714;2022-11-14T15:04:04;1.33;;;1.23;;
10120;SDS011;5100;45.176;5.714;2022-11-14T15:06:50;3.10;;;1.33;;
10120;SDS011;5100;45.176;5.714;2022-11-14T15:09:35;1.40;;;1.30;;
10120;SDS011;5100;45.176;5.714;2022-11-14T15:12:21;1.85;;;1.33;;
10120;SDS011;5100;45.176;5.714;2022-11-14T15:15:13;1.50;;;1.40;;
10120;SDS011;5100;45.176;5.714;2022-11-14T15:17:59;1.45;;;1.35;;
10120;SDS011;5100;45.176;5.714;2022-11-14T15:21:06;2.33;;;1.90;;
10120;SDS011;5100;45.176;5.714;2022-11-14T15:24:01;4.05;;;2.10;;
10120;SDS011;5100;45.176;5.714;2022-11-14T15:27:02;2.47;;;1.67;;
10120;SDS011;5100;45.176;5.714;2022-11-14T15:29:51;1.70;;;1.60;;
10120;SDS011;5100;45.176;5.714;2022-11-14T15:32:46;2.08;;;1.33;;
10120;SDS011;5100;45.176;5.714;2022-11-14T15:35:35;2.03;;;1.67;;
10120;SDS011;5100;45.176;5.714;2022-11-14T15:38:21;2.37;;;1.60;;
10120;SDS011;5100;45.176;5.714;2022-11-14T15:43:53;2.22;;;2.00;;
10120;SDS011;5100;45.176;5.714;2022-11-14T15:46:47;2.03;;;1.40;;
10120;SDS011;5100;45.176;5.714;2022-11-14T15:49:32;1.15;;;1.15;;
10120;SDS011;5100;45.176;5.714;2022-11-14T15:52:20;1.58;;;1.30;;
10120;SDS011;5100;45.176;5.714;2022-11-14T15:55:15;2.55;;;1.48;;
10120;SDS011;5100;45.176;5.714;2022-11-14T15:58:07;2.47;;;2.03;;
10120;SDS011;5100;45.176;5.714;2022-11-14T16:00:53;1.60;;;1.50;;
10120;SDS011;5100;45.176;5.714;2022-11-14T16:03:38;1.50;;;1.23;;
10120;SDS011;5100;45.176;5.714;2022-11-14T16:06:23;1.17;;;1.10;;
10120;SDS011;5100;45.176;5.714;2022-11-14T16:09:17;1.40;;;1.30;;
10120;SDS011;5100;45.176;5.714;2022-11-14T16:12:04;1.40;;;1.30;;
10120;SDS011;5100;45.176;5.714;2022-11-14T16:14:49;1.60;;;1.50;;
10120;SDS011;5100;45.176;5.714;2022-11-14T16:17:35;1.52;;;1.42;;
10120;SDS011;5100;45.176;5.714;2022-11-14T16:20:22;1.70;;;1.60;;
10120;SDS011;5100;45.176;5.714;2022-11-14T16:23:10;1.80;;;1.48;;
10120;SDS011;5100;45.176;5.714;2022-11-14T16:25:56;3.20;;;1.40;;
10120;SDS011;5100;45.176;5.714;2022-11-14T16:28:41;1.50;;;1.40;;
10120;SDS011;5100;45.176;5.714;2022-11-14T16:31:25;3.30;;;1.55;;
10120;SDS011;5100;45.176;5.714;2022-11-14T16:34:15;1.85;;;1.75;;
10120;SDS011;5100;45.176;5.714;2022-11-14T16:37:02;2.78;;;2.00;;
10120;SDS011;5100;45.176;5.714;2022-11-14T16:39:46;1.77;;;1.67;;
10120;SDS011;5100;45.176;5.714;2022-11-14T16:42:31;1.90;;;1.70;;
10120;SDS011;5100;45.176;5.714;2022-11-14T16:45:15;3.62;;;1.52;;
10120;SDS011;5100;45.176;5.714;2022-11-14T16:48:03;1.90;;;1.70;;
10120;SDS011;5100;45.176;5.714;2022-11-14T16:50:47;3.12;;;1.65;;
10120;SDS011;5100;45.176;5.714;2022-11-14T16:53:32;1.90;;;1.80;;
10120;SDS011;5100;45.176;5.714;2022-11-14T16:56:16;2.05;;;1.30;;
10120;SDS011;5100;45.176;5.714;2022-11-14T16:59:01;2.90;;;1.58;;
10120;SDS011;5100;45.176;5.714;2022-11-14T17:01:45;2.72;;;1.60;;
10120;SDS011;5100;45.176;5.714;2022-11-14T17:04:31;2.87;;;1.48;;
10120;SDS011;5100;45.176;5.714;2022-11-14T17:07:15;3.03;;;1.40;;
10120;SDS011;5100;45.176;5.714;2022-11-14T17:10:00;2.05;;;1.85;;
10120;SDS011;5100;45.176;5.714;2022-11-14T17:12:44;1.62;;;1.52;;
10120;SDS011;5100;45.176;5.714;2022-11-14T17:15:30;3.17;;;1.58;;
10120;SDS011;5100;45.176;5.714;2022-11-14T17:18:15;1.67;;;1.58;;
10120;SDS011;5100;45.176;5.714;2022-11-14T17:21:03;1.50;;;1.40;;
10120;SDS011;5100;45.176;5.714;2022-11-14T17:23:52;3.62;;;1.85;;
10120;SDS011;5100;45.176;5.714;2022-11-14T17:26:43;2.62;;;1.67;;
10120;SDS011;5100;45.176;5.714;2022-11-14T17:29:27;1.75;;;1.65;;
10120;SDS011;5100;45.176;5.714;2022-11-14T17:32:11;2.70;;;1.67;;
10120;SDS011;5100;45.176;5.714;2022-11-14T17:34:56;2.58;;;1.60;;
10120;SDS011;5100;45.176;5.714;2022-11-14T17:37:41;1.50;;;1.40;;
10120;SDS011;5100;45.176;5.714;2022-11-14T17:40:26;2.40;;;1.70;;
10120;SDS011;5100;45.176;5.714;2022-11-14T17:43:10;1.98;;;1.70;;
10120;SDS011;5100;45.176;5.714;2022-11-14T17:45:56;1.92;;;1.73;;
10120;SDS011;5100;45.176;5.714;2022-11-14T17:48:42;1.73;;;1.55;;
10120;SDS011;5100;45.176;5.714;2022-11-14T17:51:27;1.73;;;1.60;;
10120;SDS011;5100;45.176;5.714;2022-11-14T17:54:11;2.53;;;1.77;;
10120;SDS011;5100;45.176;5.714;2022-11-14T17:56:57;2.67;;;1.55;;
10120;SDS011;5100;45.176;5.714;2022-11-14T17:59:42;2.20;;;1.83;;
10120;SDS011;5100;45.176;5.714;2022-11-14T18:02:27;3.03;;;2.05;;
10120;SDS011;5100;45.176;5.714;2022-11-14T18:05:12;3.50;;;1.75;;
10120;SDS011;5100;45.176;5.714;2022-11-14T18:07:56;3.05;;;1.77;;
10120;SDS011;5100;45.176;5.714;2022-11-14T18:10:40;1.70;;;1.60;;
10120;SDS011;5100;45.176;5.714;2022-11-14T18:13:25;3.28;;;2.12;;
10120;SDS011;5100;45.176;5.714;2022-11-14T18:16:14;2.45;;;1.70;;
10120;SDS011;5100;45.176;5.714;2022-11-14T18:19:00;5.40;;;3.35;;
10120;SDS011;5100;45.176;5.714;2022-11-14T18:21:45;6.45;;;4.37;;
10120;SDS011;5100;45.176;5.714;2022-11-14T18:24:29;6.25;;;5.35;;
10120;SDS011;5100;45.176;5.714;2022-11-14T18:27:14;5.82;;;4.82;;
10120;SDS011;5100;45.176;5.714;2022-11-14T18:29:58;6.93;;;5.43;;
10120;SDS011;5100;45.176;5.714;2022-11-14T18:32:42;6.95;;;5.20;;
10120;SDS011;5100;45.176;5.714;2022-11-14T18:35:27;7.53;;;5.05;;
10120;SDS011;5100;45.176;5.714;2022-11-14T18:38:11;7.47;;;5.25;;
10120;SDS011;5100;45.176;5.714;2022-11-14T18:40:56;5.10;;;4.60;;
10120;SDS011;5100;45.176;5.714;2022-11-14T18:43:41;5.80;;;4.87;;
10120;SDS011;5100;45.176;5.714;2022-11-14T18:46:27;5.87;;;5.30;;
10120;SDS011;5100;45.176;5.714;2022-11-14T18:49:12;5.65;;;5.10;;
10120;SDS011;5100;45.176;5.714;2022-11-14T18:51:57;6.43;;;4.97;;